createdAt,value
2018-02-17T00:00:38.507Z,14.02
2018-02-17T00:03:06.689Z,15.00
2018-02-17T00:05:34.704Z,14.32
2018-02-17T00:08:02.842Z,14.07
2018-02-17T00:10:30.688Z,14.20
2018-02-17T00:12:58.778Z,13.60
2018-02-17T00:15:27.341Z,13.80
2018-02-17T00:17:55.265Z,13.23
2018-02-17T00:20:23.841Z,14.38
2018-02-17T00:22:51.698Z,14.38
2018-02-17T00:25:19.717Z,13.62
2018-02-17T00:27:47.745Z,13.38
2018-02-17T00:30:16.767Z,13.15
2018-02-17T00:32:44.747Z,13.20
2018-02-17T00:35:12.680Z,12.32
2018-02-17T00:37:40.594Z,12.50
2018-02-17T00:40:09.017Z,12.82
2018-02-17T00:42:36.986Z,11.98
2018-02-17T00:45:04.854Z,12.52
2018-02-17T00:47:33.096Z,13.05
2018-02-17T00:50:01.046Z,13.25
2018-02-17T00:52:28.967Z,13.43
2018-02-17T00:54:57.692Z,13.27
2018-02-17T00:57:28.067Z,13.13
2018-02-17T00:59:56.878Z,14.05
2018-02-17T01:02:24.802Z,14.65
2018-02-17T01:04:55.100Z,13.13
2018-02-17T01:07:23.894Z,13.98
2018-02-17T01:09:51.742Z,13.57
2018-02-17T01:12:19.725Z,14.10
2018-02-17T01:14:48.361Z,14.52
2018-02-17T01:17:16.696Z,14.15
2018-02-17T01:19:44.739Z,15.00
2018-02-17T01:22:13.406Z,16.10
2018-02-17T01:24:41.372Z,16.20
2018-02-17T01:27:09.552Z,14.43
2018-02-17T01:29:37.995Z,15.93
2018-02-17T01:32:06.149Z,14.63
2018-02-17T01:34:34.575Z,14.52
2018-02-17T01:37:02.529Z,13.95
2018-02-17T01:39:30.770Z,13.95
2018-02-17T01:41:58.826Z,13.65
2018-02-17T01:44:27.656Z,15.38
2018-02-17T01:46:55.626Z,14.38
2018-02-17T01:49:24.439Z,14.80
2018-02-17T01:51:52.317Z,14.52
2018-02-17T01:54:20.465Z,14.27
2018-02-17T01:56:48.818Z,14.57
2018-02-17T01:59:16.907Z,14.38
2018-02-17T02:01:44.863Z,15.93
2018-02-17T02:04:13.640Z,15.75
2018-02-17T02:06:42.375Z,15.88
2018-02-17T02:09:10.601Z,14.60
2018-02-17T02:11:38.860Z,15.02
2018-02-17T02:14:06.818Z,13.55
2018-02-17T02:16:34.901Z,14.65
2018-02-17T02:19:02.931Z,15.05
2018-02-17T02:21:30.890Z,14.57
2018-02-17T02:23:58.913Z,16.23
2018-02-17T02:26:27.027Z,14.60
2018-02-17T02:28:55.207Z,15.48
2018-02-17T02:31:23.561Z,14.55
2018-02-17T02:33:51.659Z,13.77
2018-02-17T02:36:19.877Z,14.13
2018-02-17T02:38:47.869Z,15.23
2018-02-17T02:41:15.736Z,15.77
2018-02-17T02:43:43.620Z,14.90
2018-02-17T02:46:11.884Z,15.48
2018-02-17T02:48:40.775Z,14.07
2018-02-17T02:51:12.055Z,15.23
2018-02-17T02:53:40.740Z,15.88
2018-02-17T02:56:08.679Z,14.07
2018-02-17T02:58:37.488Z,15.50
2018-02-17T03:01:07.332Z,16.25
2018-02-17T03:03:35.267Z,13.27
2018-02-17T03:06:04.011Z,13.27
2018-02-17T03:08:31.966Z,13.55
2018-02-17T03:10:59.941Z,12.85
2018-02-17T03:13:27.965Z,13.40
2018-02-17T03:15:57.162Z,14.50
2018-02-17T03:18:25.905Z,15.88
2018-02-17T03:20:54.184Z,16.27
2018-02-17T03:23:22.370Z,14.77
2018-02-17T03:25:51.152Z,14.30
2018-02-17T03:28:19.314Z,14.23
2018-02-17T03:30:47.378Z,13.27
2018-02-17T03:33:16.579Z,14.68
2018-02-17T03:35:44.939Z,15.90
2018-02-17T03:38:13.723Z,14.55
2018-02-17T03:40:41.850Z,14.40
2018-02-17T03:43:18.615Z,14.93
2018-02-17T03:45:46.739Z,15.00
2018-02-17T03:48:23.328Z,14.48
2018-02-17T03:50:53.075Z,14.02
2018-02-17T03:53:23.674Z,15.07
2018-02-17T03:55:51.676Z,13.02
2018-02-17T03:58:20.600Z,14.55
2018-02-17T04:00:48.540Z,13.88
2018-02-17T04:03:16.730Z,13.98
2018-02-17T04:05:44.812Z,14.80
2018-02-17T04:08:13.812Z,14.35
2018-02-17T04:10:42.680Z,13.18
2018-02-17T04:13:11.031Z,15.23
2018-02-17T04:15:40.053Z,14.35
2018-02-17T04:18:08.146Z,13.62
2018-02-17T04:20:36.438Z,13.93
2018-02-17T04:23:04.370Z,13.73
2018-02-17T04:25:32.401Z,12.80
2018-02-17T04:28:01.265Z,12.27
2018-02-17T04:30:32.311Z,14.20
2018-02-17T04:33:00.475Z,13.05
2018-02-17T04:35:29.326Z,15.45
2018-02-17T04:37:59.610Z,13.43
2018-02-17T04:40:28.124Z,14.68
2018-02-17T04:42:56.128Z,14.27
2018-02-17T04:45:24.210Z,13.68
2018-02-17T04:47:52.954Z,14.43
2018-02-17T04:50:21.180Z,14.05
2018-02-17T04:52:49.236Z,13.23
2018-02-17T04:55:18.217Z,13.00
2018-02-17T04:57:46.305Z,13.82
2018-02-17T05:00:14.410Z,13.77
2018-02-17T05:02:42.315Z,13.02
2018-02-17T05:05:10.676Z,13.52
2018-02-17T05:07:44.016Z,13.62
2018-02-17T05:10:12.449Z,13.75
2018-02-17T05:12:41.208Z,13.48
2018-02-17T05:15:09.282Z,13.13
2018-02-17T05:17:45.877Z,12.57
2018-02-17T05:20:13.899Z,13.10
2018-02-17T05:22:42.706Z,12.88
2018-02-17T05:25:10.980Z,13.85
2018-02-17T05:27:39.031Z,13.52
2018-02-17T05:30:08.369Z,14.23
2018-02-17T05:32:37.154Z,14.93
2018-02-17T05:35:05.979Z,13.88
2018-02-17T05:37:34.606Z,14.50
2018-02-17T05:40:02.611Z,14.27
2018-02-17T05:42:31.648Z,14.40
2018-02-17T05:44:59.738Z,13.00
2018-02-17T05:47:27.688Z,12.40
2018-02-17T05:49:55.987Z,11.70
2018-02-17T05:52:23.959Z,11.15
2018-02-17T05:54:52.150Z,12.95
2018-02-17T05:57:29.671Z,11.80
2018-02-17T05:59:58.356Z,13.13
2018-02-17T06:02:26.886Z,12.25
2018-02-17T06:04:54.941Z,12.95
2018-02-17T06:07:23.026Z,12.25
2018-02-17T06:09:51.916Z,11.40
2018-02-17T06:12:20.535Z,12.18
2018-02-17T06:14:48.417Z,11.05
2018-02-17T06:17:17.081Z,12.00
2018-02-17T06:19:45.015Z,12.57
2018-02-17T06:22:13.192Z,12.27
2018-02-17T06:24:41.232Z,11.80
2018-02-17T06:27:09.574Z,12.37
2018-02-17T06:29:37.530Z,11.43
2018-02-17T06:32:05.112Z,11.93
2018-02-17T06:34:33.893Z,11.98
2018-02-17T06:37:01.916Z,12.32
2018-02-17T06:39:31.122Z,12.05
2018-02-17T06:41:59.173Z,11.12
2018-02-17T06:44:27.930Z,10.77
2018-02-17T06:46:56.158Z,11.35
2018-02-17T06:49:24.408Z,10.68
2018-02-17T06:51:52.854Z,10.95
2018-02-17T06:54:21.232Z,12.07
2018-02-17T06:56:49.181Z,12.02
2018-02-17T06:59:17.360Z,12.13
2018-02-17T07:01:45.220Z,11.63
2018-02-17T07:04:13.039Z,12.13
2018-02-17T07:06:44.406Z,11.88
2018-02-17T07:09:12.972Z,13.35
2018-02-17T07:11:40.939Z,13.32
2018-02-17T07:14:10.386Z,12.50
2018-02-17T07:16:44.449Z,13.35
2018-02-17T07:19:12.332Z,12.73
2018-02-17T07:21:42.171Z,11.70
2018-02-17T07:24:10.204Z,13.05
2018-02-17T07:26:39.124Z,11.98
2018-02-17T07:29:08.111Z,12.95
2018-02-17T07:31:36.084Z,11.80
2018-02-17T07:34:05.283Z,12.57
2018-02-17T07:36:33.154Z,13.48
2018-02-17T07:39:01.396Z,12.65
2018-02-17T07:41:29.403Z,13.43
2018-02-17T07:43:58.118Z,13.20
2018-02-17T07:46:29.605Z,12.95
2018-02-17T07:48:57.690Z,12.13
2018-02-17T07:51:26.992Z,13.38
2018-02-17T07:53:57.235Z,12.75
2018-02-17T07:56:26.020Z,12.02
2018-02-17T07:58:54.899Z,11.20
2018-02-17T08:01:24.131Z,10.98
2018-02-17T08:03:52.089Z,12.75
2018-02-17T08:06:20.323Z,12.30
2018-02-17T08:08:49.758Z,12.15
2018-02-17T08:11:18.371Z,12.80
2018-02-17T08:13:46.276Z,12.85
2018-02-17T08:16:14.862Z,13.52
2018-02-17T08:18:45.472Z,13.27
2018-02-17T08:21:13.497Z,13.30
2018-02-17T08:23:41.438Z,13.68
2018-02-17T08:26:14.160Z,14.48
2018-02-17T08:28:42.836Z,13.70
2018-02-17T08:31:10.787Z,12.75
2018-02-17T08:33:39.676Z,14.10
2018-02-17T08:36:08.764Z,13.23
2018-02-17T08:38:37.653Z,13.00
2018-02-17T08:41:06.436Z,13.32
2018-02-17T08:43:35.501Z,13.30
2018-02-17T08:46:03.426Z,13.77
2018-02-17T08:48:31.507Z,14.27
2018-02-17T08:51:02.207Z,13.15
2018-02-17T08:53:30.366Z,13.32
2018-02-17T08:56:01.904Z,13.70
2018-02-17T08:58:30.091Z,14.82
2018-02-17T09:01:00.151Z,14.60
2018-02-17T09:03:29.877Z,14.50
2018-02-17T09:05:58.519Z,14.52
2018-02-17T09:08:26.546Z,14.35
2018-02-17T09:11:05.003Z,14.02
2018-02-17T09:13:33.894Z,14.30
2018-02-17T09:19:11.608Z,13.95
2018-02-17T09:21:42.168Z,14.63
2018-02-17T09:24:30.686Z,14.13
2018-02-17T09:27:02.762Z,14.02
2018-02-17T09:29:31.007Z,14.18
2018-02-17T09:32:00.762Z,14.25
2018-02-17T09:34:28.931Z,14.60
2018-02-17T09:36:56.834Z,15.13
2018-02-17T09:39:29.127Z,15.93
2018-02-17T09:41:59.119Z,21.05
2018-02-17T09:44:28.242Z,15.25
2018-02-17T09:46:58.437Z,15.57
2018-02-17T09:49:28.458Z,16.67
2018-02-17T09:51:56.544Z,15.75
2018-02-17T09:55:12.646Z,16.02
2018-02-17T09:57:41.046Z,15.77
2018-02-17T10:00:13.604Z,15.88
2018-02-17T10:02:42.273Z,16.23
2018-02-17T10:05:25.970Z,15.57
2018-02-17T10:07:55.533Z,14.57
2018-02-17T10:10:26.270Z,15.63
2018-02-17T10:12:57.175Z,15.52
2018-02-17T10:15:26.197Z,14.82
2018-02-17T10:17:54.508Z,14.50
2018-02-17T10:20:23.018Z,15.35
2018-02-17T10:22:51.836Z,15.63
2018-02-17T10:25:30.863Z,14.67
2018-02-17T10:28:00.541Z,14.97
2018-02-17T10:30:28.762Z,15.40
2018-02-17T10:32:56.824Z,16.27
2018-02-17T10:35:24.949Z,16.50
2018-02-17T10:37:52.926Z,15.70
2018-02-17T10:40:21.025Z,16.23
2018-02-17T10:42:49.291Z,16.17
2018-02-17T10:45:20.131Z,14.45
2018-02-17T10:48:03.159Z,15.83
2018-02-17T10:50:32.303Z,16.70
2018-02-17T10:53:01.676Z,15.63
2018-02-17T10:55:34.464Z,15.30
2018-02-17T10:58:16.512Z,16.73
2018-02-17T11:00:46.345Z,15.87
2018-02-17T11:03:15.400Z,14.80
2018-02-17T11:05:44.056Z,14.90
2018-02-17T11:08:14.531Z,16.30
2018-02-17T11:10:43.111Z,14.53
2018-02-17T11:13:12.127Z,17.10
2018-02-17T11:15:42.102Z,14.13
2018-02-17T11:18:10.956Z,14.73
2018-02-17T11:20:39.177Z,13.73
2018-02-17T11:23:08.705Z,14.33
2018-02-17T11:25:37.060Z,14.10
2018-02-17T11:28:05.329Z,13.57
2018-02-17T11:30:34.926Z,13.70
2018-02-17T11:33:15.731Z,13.37
2018-02-17T11:38:59.445Z,13.73
2018-02-17T11:41:28.620Z,12.63
2018-02-17T11:43:57.171Z,12.90
2018-02-17T11:46:25.640Z,13.10
2018-02-17T11:48:53.687Z,12.87
2018-02-17T11:51:21.727Z,13.43
2018-02-17T11:53:56.170Z,13.97
2018-02-17T11:56:24.498Z,12.87
2018-02-17T11:59:18.471Z,13.63
2018-02-17T12:01:47.068Z,14.57
2018-02-17T12:04:25.089Z,12.27
2018-02-17T12:06:53.846Z,13.17
2018-02-17T12:09:28.063Z,14.60
2018-02-17T12:11:56.088Z,13.67
2018-02-17T12:14:29.670Z,13.27
2018-02-17T12:16:58.349Z,13.57
2018-02-17T12:19:28.204Z,12.73
2018-02-17T12:21:56.285Z,13.90
2018-02-17T12:26:58.491Z,13.67
2018-02-17T12:29:26.559Z,12.70
2018-02-17T12:31:56.670Z,13.00
2018-02-17T12:34:24.746Z,13.80
2018-02-17T12:36:56.221Z,13.50
2018-02-17T12:39:24.848Z,13.93
2018-02-17T12:41:52.909Z,12.40
2018-02-17T12:44:22.115Z,12.50
2018-02-17T12:46:50.265Z,14.17
2018-02-17T12:49:18.232Z,12.60
2018-02-17T12:51:48.480Z,12.67
2018-02-17T12:54:16.671Z,12.70
2018-02-17T12:56:52.641Z,13.77
2018-02-17T12:59:24.148Z,11.67
2018-02-17T13:01:52.274Z,13.03
2018-02-17T13:04:20.518Z,12.07
2018-02-17T13:06:49.420Z,13.07
2018-02-17T13:09:17.665Z,12.57
2018-02-17T13:12:00.845Z,12.30
2018-02-17T13:14:28.830Z,12.77
2018-02-17T13:16:58.807Z,11.43
2018-02-17T13:19:26.883Z,12.00
2018-02-17T13:22:13.144Z,12.90
2018-02-17T13:24:43.047Z,12.27
2018-02-17T13:27:14.017Z,10.20
2018-02-17T13:29:42.224Z,12.97
2018-02-17T13:32:11.371Z,12.27
2018-02-17T13:34:41.699Z,11.57
2018-02-17T13:37:09.725Z,12.90
2018-02-17T13:39:44.613Z,13.00
2018-02-17T13:42:32.914Z,12.33
2018-02-17T13:45:17.706Z,12.80
2018-02-17T13:47:46.303Z,11.80
2018-02-17T13:50:28.865Z,12.00
2018-02-17T13:52:57.649Z,12.53
2018-02-17T13:55:26.349Z,11.97
2018-02-17T13:57:58.014Z,12.23
2018-02-17T14:01:07.328Z,10.83
2018-02-17T14:03:40.098Z,11.77
2018-02-17T14:06:08.168Z,14.13
2018-02-17T14:08:44.801Z,15.10
2018-02-17T14:11:20.134Z,16.05
2018-02-17T15:05:57.311Z,18.20
2018-02-17T15:08:26.919Z,18.83
2018-02-17T15:10:58.507Z,16.43
2018-02-17T15:13:28.252Z,19.77
2018-02-17T15:15:56.239Z,21.10
2018-02-17T15:18:24.584Z,19.23
2018-02-17T15:20:54.436Z,17.50
2018-02-17T15:23:22.868Z,17.73
2018-02-17T15:31:44.051Z,19.60
2018-02-17T15:34:12.577Z,19.67
2018-02-17T16:04:21.692Z,16.57
2018-02-17T16:06:59.772Z,17.13
2018-02-17T16:09:45.801Z,20.87
2018-02-17T16:12:14.628Z,20.33
2018-02-17T16:25:09.528Z,21.25
2018-02-17T16:28:04.541Z,16.67
2018-02-17T16:30:44.824Z,17.48
2018-02-17T16:33:18.000Z,17.20
2018-02-17T16:36:02.110Z,16.80
2018-02-17T16:38:30.795Z,17.60
2018-02-17T16:41:01.823Z,16.12
2018-02-17T16:43:35.747Z,16.83
2018-02-17T16:46:06.780Z,16.63
2018-02-17T16:49:02.378Z,16.90
2018-02-17T16:51:31.215Z,16.20
2018-02-17T16:53:59.251Z,18.27
2018-02-17T16:56:28.683Z,16.73
2018-02-17T16:58:57.794Z,16.98
2018-02-17T17:01:26.834Z,16.77
2018-02-17T17:07:11.620Z,15.83
2018-02-17T17:10:22.499Z,16.15
2018-02-17T17:12:52.019Z,15.60
2018-02-17T17:16:02.723Z,17.10
2018-02-17T17:18:34.409Z,15.73
2018-02-17T17:21:03.955Z,15.30
2018-02-17T17:23:39.018Z,15.53
2018-02-17T17:26:11.854Z,15.70
2018-02-17T17:28:44.284Z,16.07
2018-02-17T17:31:13.451Z,15.03
2018-02-17T17:33:44.292Z,15.47
2018-02-17T17:36:34.274Z,16.57
2018-02-17T17:39:07.457Z,16.37
2018-02-17T17:41:43.086Z,16.17
2018-02-17T17:44:14.694Z,17.53
2018-02-17T17:49:51.592Z,16.10
2018-02-17T17:52:28.392Z,17.47
2018-02-17T17:55:04.554Z,15.30
2018-02-17T17:57:34.480Z,16.27
2018-02-17T18:00:12.239Z,16.80
2018-02-17T18:06:33.622Z,15.97
2018-02-17T18:09:24.273Z,17.13
2018-02-17T18:11:58.854Z,17.23
2018-02-17T18:14:35.564Z,17.00
2018-02-17T18:17:06.956Z,15.87
2018-02-17T18:19:40.915Z,17.07
2018-02-17T18:22:10.985Z,17.27
2018-02-17T18:24:41.511Z,17.90
2018-02-17T18:27:13.461Z,16.97
2018-02-17T18:29:55.033Z,17.73
2018-02-17T18:32:45.744Z,16.70
2018-02-17T18:35:21.677Z,17.97
2018-02-17T18:37:57.730Z,17.60
2018-02-17T18:40:42.610Z,19.20
2018-02-17T18:43:16.499Z,19.15
2018-02-17T18:45:49.270Z,18.35
2018-02-17T18:48:29.406Z,18.40
2018-02-17T18:51:07.938Z,18.02
2018-02-17T18:53:51.826Z,17.83
2018-02-17T18:56:38.046Z,17.98
2018-02-17T18:59:12.111Z,21.87
2018-02-17T19:05:35.965Z,24.52
2018-02-17T19:08:17.798Z,24.12
2018-02-17T19:10:54.866Z,20.45
2018-02-17T19:16:09.065Z,24.53
2018-02-17T19:18:38.966Z,23.05
2018-02-17T19:21:07.755Z,22.50
2018-02-17T19:23:38.060Z,22.77
2018-02-17T19:26:16.979Z,23.33
2018-02-17T19:28:45.452Z,22.13
2018-02-17T19:31:31.796Z,22.58
2018-02-17T19:34:02.257Z,21.23
2018-02-17T19:36:35.178Z,21.95
2018-02-17T19:39:04.307Z,20.95
2018-02-17T19:41:53.152Z,23.30
2018-02-17T19:44:56.146Z,22.40
2018-02-17T19:47:27.254Z,20.67
2018-02-17T19:49:56.799Z,20.92
2018-02-17T19:52:28.215Z,22.40
2018-02-17T19:54:59.746Z,21.30
2018-02-17T19:57:31.815Z,21.90
2018-02-17T20:00:04.593Z,22.23
2018-02-17T20:02:36.701Z,23.35
2018-02-17T20:05:05.524Z,21.70
2018-02-17T20:07:34.251Z,21.92
2018-02-17T20:10:05.228Z,22.50
2018-02-17T20:12:37.195Z,21.37
2018-02-17T20:15:17.538Z,22.87
2018-02-17T20:17:50.282Z,22.13
2018-02-17T20:20:20.315Z,22.20
2018-02-17T20:22:49.315Z,21.92
2018-02-17T20:25:19.217Z,23.50
2018-02-17T20:27:49.515Z,23.02
2018-02-17T20:30:23.828Z,22.37
2018-02-17T20:32:59.031Z,24.12
2018-02-17T20:35:28.808Z,24.17
2018-02-17T20:38:02.643Z,23.40
2018-02-17T20:40:37.374Z,23.80
2018-02-17T20:43:12.150Z,23.02
2018-02-17T20:45:41.569Z,24.35
2018-02-17T20:48:12.730Z,23.77
2018-02-17T20:50:42.637Z,24.67
2018-02-17T20:53:13.360Z,25.27
2018-02-17T20:55:44.703Z,25.60
2018-02-17T20:58:14.331Z,26.45
2018-02-17T21:00:47.725Z,24.37
2018-02-17T21:03:23.126Z,25.08
2018-02-17T21:05:53.696Z,28.73
2018-02-17T21:08:24.244Z,27.83
2018-02-17T21:11:10.721Z,27.02
2018-02-17T21:13:39.195Z,26.75
2018-02-17T21:16:15.230Z,28.33
2018-02-17T21:18:45.081Z,28.10
2018-02-17T21:21:16.132Z,29.40
2018-02-17T21:23:45.418Z,28.20
2018-02-17T21:26:14.880Z,26.55
2018-02-17T21:28:45.710Z,27.67
2018-02-17T21:31:21.837Z,25.25
2018-02-17T21:33:51.888Z,26.08
2018-02-17T21:36:22.636Z,27.25
2018-02-17T21:38:52.915Z,26.85
2018-02-17T21:41:27.719Z,25.35
2018-02-17T21:43:56.397Z,25.83
2018-02-17T21:46:24.391Z,25.27
2018-02-17T21:48:53.232Z,26.62
2018-02-17T21:51:26.607Z,24.25
2018-02-17T21:53:55.838Z,26.45
2018-02-17T21:56:27.282Z,26.37
2018-02-17T21:58:59.554Z,25.60
2018-02-17T22:01:28.903Z,25.20
2018-02-17T22:03:59.251Z,25.45
2018-02-17T22:06:32.318Z,26.10
2018-02-17T22:09:07.312Z,29.37
2018-02-17T22:11:37.997Z,30.15
2018-02-17T22:14:10.802Z,28.45
2018-02-17T22:16:40.244Z,29.17
2018-02-17T22:19:11.702Z,29.75
2018-02-17T22:21:41.317Z,30.00
2018-02-17T22:24:16.594Z,28.10
2018-02-17T22:26:49.048Z,27.95
2018-02-17T22:29:22.485Z,28.58
2018-02-17T22:31:53.979Z,28.27
2018-02-17T22:34:26.165Z,27.50
2018-02-17T22:36:56.339Z,27.65
2018-02-17T22:39:29.624Z,26.70
2018-02-17T22:42:02.933Z,27.48
2018-02-17T22:44:38.755Z,27.05
2018-02-17T22:47:09.728Z,26.42
2018-02-17T22:49:42.318Z,26.90
2018-02-17T22:52:13.697Z,27.65
2018-02-17T22:54:45.991Z,26.60
2018-02-17T22:57:18.042Z,29.08
2018-02-17T22:59:50.413Z,28.35
2018-02-17T23:02:18.360Z,28.35
2018-02-17T23:04:46.351Z,28.35
2018-02-17T23:07:14.281Z,27.92
2018-02-17T23:09:42.146Z,26.65
2018-02-17T23:12:10.121Z,28.48
2018-02-17T23:14:38.017Z,26.70
2018-02-17T23:17:05.922Z,27.75
2018-02-17T23:19:34.763Z,25.92
2018-02-17T23:22:02.741Z,25.80
2018-02-17T23:24:30.616Z,26.08
2018-02-17T23:26:59.321Z,26.60
2018-02-17T23:29:27.259Z,25.05
2018-02-17T23:31:56.008Z,24.63
2018-02-17T23:34:23.901Z,25.02
2018-02-17T23:36:51.814Z,26.30
2018-02-17T23:39:20.443Z,25.05
2018-02-17T23:41:48.441Z,26.73
2018-02-17T23:44:16.357Z,29.05
2018-02-17T23:46:45.116Z,28.15
2018-02-17T23:49:13.727Z,26.83
2018-02-17T23:51:41.622Z,28.27
2018-02-17T23:54:09.571Z,29.52
2018-02-17T23:56:37.395Z,29.30
2018-02-17T23:59:05.338Z,26.42
